createdAt,value
2022-12-29T00:00:23.525Z,60.80
2022-12-29T00:02:52.208Z,62.67
2022-12-29T00:05:20.904Z,60.97
2022-12-29T00:07:50.825Z,63.07
2022-12-29T00:10:19.323Z,62.23
2022-12-29T00:13:05.146Z,61.17
2022-12-29T00:15:39.250Z,60.47
2022-12-29T00:18:09.720Z,59.60
2022-12-29T00:20:58.124Z,65.87
2022-12-29T00:23:45.230Z,65.83
2022-12-29T00:26:33.646Z,67.00
2022-12-29T00:29:19.421Z,65.47
2022-12-29T00:32:06.618Z,66.87
2022-12-29T00:35:04.764Z,69.30
2022-12-29T00:37:47.167Z,67.50
2022-12-29T00:40:34.893Z,69.37
2022-12-29T00:43:20.877Z,67.80
2022-12-29T00:45:49.392Z,69.00
2022-12-29T00:48:37.955Z,72.27
2022-12-29T00:51:05.860Z,71.03
2022-12-29T00:53:37.503Z,70.37
2022-12-29T00:56:07.633Z,73.47
2022-12-29T00:58:36.212Z,71.80
2022-12-29T01:01:08.332Z,74.37
2022-12-29T01:03:38.273Z,71.70
2022-12-29T01:06:09.258Z,71.80
2022-12-29T01:08:39.733Z,70.97
2022-12-29T01:11:11.063Z,71.83
2022-12-29T01:13:44.752Z,70.57
2022-12-29T01:16:13.485Z,71.53
2022-12-29T01:18:43.778Z,70.47
2022-12-29T01:21:15.185Z,69.90
2022-12-29T01:23:43.719Z,72.33
2022-12-29T01:26:14.662Z,67.87
2022-12-29T01:28:45.746Z,71.00
2022-12-29T01:31:16.286Z,71.10
2022-12-29T01:33:48.155Z,64.73
2022-12-29T01:36:18.271Z,68.37
2022-12-29T01:38:47.245Z,68.53
2022-12-29T01:41:20.662Z,70.67
2022-12-29T01:43:51.417Z,66.03
2022-12-29T01:46:27.684Z,71.37
2022-12-29T01:49:00.165Z,67.50
2022-12-29T01:51:30.535Z,69.23
2022-12-29T01:54:01.897Z,67.70
2022-12-29T01:56:32.315Z,65.10
2022-12-29T01:59:05.484Z,65.00
2022-12-29T02:01:34.334Z,64.50
2022-12-29T02:04:04.357Z,70.73
2022-12-29T02:06:37.431Z,66.37
2022-12-29T02:09:06.009Z,67.10
2022-12-29T02:11:38.504Z,65.23
2022-12-29T02:14:12.262Z,66.00
2022-12-29T02:16:58.482Z,67.30
2022-12-29T02:20:02.762Z,66.27
2022-12-29T02:22:37.000Z,66.57
2022-12-29T02:25:37.637Z,68.80
2022-12-29T02:28:32.913Z,70.60
2022-12-29T02:31:12.287Z,64.70
2022-12-29T02:33:58.969Z,69.57
2022-12-29T02:36:40.688Z,65.60
2022-12-29T02:39:17.559Z,66.23
2022-12-29T02:41:59.432Z,66.83
2022-12-29T02:44:37.107Z,66.30
2022-12-29T02:47:14.896Z,65.43
2022-12-29T02:49:50.564Z,63.87
2022-12-29T02:52:24.321Z,67.20
2022-12-29T02:54:54.396Z,70.23
2022-12-29T02:57:32.588Z,65.07
2022-12-29T03:00:08.602Z,69.80
2022-12-29T03:03:10.956Z,69.30
2022-12-29T03:06:03.451Z,68.97
2022-12-29T03:08:39.519Z,66.40
2022-12-29T03:11:32.638Z,68.80
2022-12-29T03:14:25.745Z,70.10
2022-12-29T03:17:01.700Z,67.10
2022-12-29T03:19:35.774Z,72.57
2022-12-29T03:22:33.585Z,72.97
2022-12-29T03:25:19.901Z,72.80
2022-12-29T03:27:53.607Z,69.90
2022-12-29T03:30:25.877Z,70.70
2022-12-29T03:32:58.820Z,73.77
2022-12-29T03:35:35.077Z,73.60
2022-12-29T03:38:12.167Z,74.17
2022-12-29T03:40:43.027Z,71.60
2022-12-29T03:43:13.841Z,72.73
2022-12-29T03:45:43.113Z,73.57
2022-12-29T03:48:12.121Z,72.10
2022-12-29T03:50:44.345Z,75.67
2022-12-29T03:53:13.013Z,76.37
2022-12-29T03:55:41.610Z,73.87
2022-12-29T03:58:10.345Z,73.77
2022-12-29T04:01:02.061Z,76.13
2022-12-29T04:03:33.066Z,75.47
2022-12-29T04:06:03.072Z,71.93
2022-12-29T04:08:38.377Z,72.87
2022-12-29T04:11:08.159Z,68.47
2022-12-29T04:13:36.740Z,76.03
2022-12-29T04:16:05.634Z,71.90
2022-12-29T04:18:34.935Z,74.33
2022-12-29T04:21:05.094Z,75.57
2022-12-29T04:23:37.983Z,76.10
2022-12-29T04:26:10.152Z,82.13
2022-12-29T04:29:01.364Z,82.20
2022-12-29T04:31:44.094Z,78.13
2022-12-29T04:34:16.356Z,79.30
2022-12-29T04:36:50.426Z,80.73
2022-12-29T04:39:19.897Z,78.37
2022-12-29T04:41:48.538Z,75.30
2022-12-29T04:44:21.784Z,84.13
2022-12-29T04:47:16.432Z,78.80
2022-12-29T04:49:57.440Z,74.47
2022-12-29T04:52:46.598Z,77.57
2022-12-29T04:55:16.624Z,72.97
2022-12-29T04:57:47.352Z,72.47
2022-12-29T05:00:20.328Z,74.00
2022-12-29T05:02:49.683Z,75.63
2022-12-29T05:05:21.123Z,70.73
2022-12-29T05:07:53.971Z,64.27
2022-12-29T05:10:22.490Z,66.07
2022-12-29T05:12:54.408Z,72.00
2022-12-29T05:15:23.243Z,72.57
2022-12-29T05:17:52.385Z,68.60
2022-12-29T05:20:21.015Z,69.83
2022-12-29T05:22:49.628Z,73.03
2022-12-29T05:25:19.566Z,70.03
2022-12-29T05:28:00.530Z,75.50
2022-12-29T05:30:42.681Z,76.80
2022-12-29T05:33:12.755Z,77.73
2022-12-29T05:35:45.108Z,76.17
2022-12-29T05:38:14.751Z,74.33
2022-12-29T05:40:45.684Z,73.77
2022-12-29T05:43:32.274Z,67.37
2022-12-29T05:46:23.623Z,61.10
2022-12-29T05:49:01.123Z,63.00
2022-12-29T05:51:40.833Z,65.47
2022-12-29T05:54:09.683Z,64.27
2022-12-29T05:56:40.708Z,65.60
2022-12-29T05:59:09.438Z,65.30
2022-12-29T06:01:39.138Z,63.10
2022-12-29T06:04:07.828Z,62.40
2022-12-29T06:06:39.933Z,59.40
2022-12-29T06:09:13.010Z,57.30
2022-12-29T06:11:43.976Z,58.17
2022-12-29T06:14:12.686Z,60.30
2022-12-29T06:16:41.232Z,59.20
2022-12-29T06:19:13.129Z,58.50
2022-12-29T06:21:42.683Z,61.03
2022-12-29T06:24:12.230Z,57.17
2022-12-29T06:26:43.015Z,62.37
2022-12-29T06:29:12.128Z,58.00
2022-12-29T06:31:40.644Z,57.57
2022-12-29T06:34:12.082Z,52.67
2022-12-29T06:36:40.866Z,51.93
2022-12-29T06:39:09.540Z,55.70
2022-12-29T06:41:38.057Z,53.80
2022-12-29T06:44:42.706Z,51.63
2022-12-29T06:47:12.161Z,53.80
2022-12-29T06:49:40.637Z,53.13
2022-12-29T06:52:12.933Z,56.00
2022-12-29T06:54:41.943Z,53.93
2022-12-29T06:57:10.436Z,53.73
2022-12-29T06:59:39.540Z,51.50
2022-12-29T07:02:11.682Z,53.57
2022-12-29T07:04:40.360Z,52.13
2022-12-29T07:07:08.836Z,51.23
2022-12-29T07:09:37.384Z,52.07
2022-12-29T07:12:09.013Z,50.57
2022-12-29T07:14:42.927Z,51.00
2022-12-29T07:17:13.373Z,50.43
2022-12-29T07:19:42.113Z,52.20
2022-12-29T07:22:11.488Z,51.20
2022-12-29T07:24:39.958Z,50.67
2022-12-29T07:27:08.593Z,49.93
2022-12-29T07:29:39.688Z,47.07
2022-12-29T07:32:08.200Z,49.77
2022-12-29T07:34:40.753Z,49.40
2022-12-29T07:37:09.385Z,48.67
2022-12-29T07:39:37.928Z,47.60
2022-12-29T07:42:06.517Z,49.50
2022-12-29T07:44:46.604Z,46.60
2022-12-29T07:47:28.294Z,49.20
2022-12-29T07:49:58.287Z,48.20
2022-12-29T07:52:26.889Z,49.07
2022-12-29T07:54:55.457Z,46.30
2022-12-29T07:57:31.737Z,50.80
2022-12-29T08:00:01.017Z,48.40
2022-12-29T08:02:30.771Z,49.10
2022-12-29T08:05:00.738Z,44.90
2022-12-29T08:07:29.321Z,45.37
2022-12-29T08:09:58.234Z,47.30
2022-12-29T08:12:26.718Z,46.07
2022-12-29T08:14:55.146Z,47.77
2022-12-29T08:17:26.354Z,47.67
2022-12-29T08:19:54.863Z,46.70
2022-12-29T08:22:25.143Z,46.97
2022-12-29T08:24:53.650Z,44.20
2022-12-29T08:27:22.225Z,44.43
2022-12-29T08:29:51.192Z,46.00
2022-12-29T08:32:20.200Z,46.50
2022-12-29T08:34:50.890Z,45.27
2022-12-29T08:37:23.962Z,45.20
2022-12-29T08:39:59.956Z,44.73
2022-12-29T08:42:32.052Z,40.73
2022-12-29T08:45:02.128Z,40.53
2022-12-29T08:47:30.855Z,40.47
2022-12-29T08:49:59.405Z,37.40
2022-12-29T08:52:27.905Z,41.20
2022-12-29T08:54:57.695Z,41.20
2022-12-29T08:57:26.915Z,40.57
2022-12-29T09:00:16.005Z,41.73
2022-12-29T09:02:47.435Z,40.80
2022-12-29T09:05:16.242Z,40.20
2022-12-29T09:07:44.824Z,40.33
2022-12-29T09:10:17.148Z,40.90
2022-12-29T09:12:45.689Z,40.40
2022-12-29T09:15:14.474Z,37.73
2022-12-29T09:17:43.019Z,39.13
2022-12-29T09:20:12.513Z,41.70
2022-12-29T09:22:41.079Z,40.17
2022-12-29T09:25:10.924Z,40.07
2022-12-29T09:27:41.213Z,39.27
2022-12-29T09:30:15.508Z,40.63
2022-12-29T09:32:45.826Z,40.60
2022-12-29T09:35:16.264Z,38.03
2022-12-29T09:37:45.348Z,41.03
2022-12-29T09:40:31.012Z,38.30
2022-12-29T09:43:26.473Z,39.13
2022-12-29T09:45:59.610Z,38.33
2022-12-29T09:48:31.873Z,42.50
2022-12-29T09:51:04.325Z,39.40
2022-12-29T09:53:38.767Z,40.00
2022-12-29T09:56:13.924Z,42.90
2022-12-29T09:58:49.851Z,42.47
2022-12-29T10:01:28.734Z,43.20
2022-12-29T10:03:58.812Z,41.97
2022-12-29T10:06:34.032Z,44.90
2022-12-29T10:09:12.244Z,43.57
2022-12-29T10:11:57.392Z,43.40
2022-12-29T10:14:43.625Z,43.83
2022-12-29T10:17:28.905Z,42.07
2022-12-29T10:20:29.062Z,41.50
2022-12-29T10:23:19.708Z,40.80
2022-12-29T10:25:48.438Z,38.53
2022-12-29T10:28:22.777Z,39.20
2022-12-29T10:30:54.592Z,38.20
2022-12-29T10:33:28.477Z,36.63
2022-12-29T10:35:56.957Z,40.00
2022-12-29T10:38:29.848Z,38.60
2022-12-29T10:41:02.777Z,35.60
2022-12-29T10:43:34.760Z,36.53
2022-12-29T10:46:11.666Z,38.87
2022-12-29T10:48:40.860Z,37.73
2022-12-29T10:51:10.793Z,36.70
2022-12-29T10:53:53.126Z,34.90
2022-12-29T10:56:31.533Z,36.40
2022-12-29T10:59:04.004Z,39.97
2022-12-29T11:01:42.888Z,43.73
2022-12-29T11:04:29.057Z,40.83
2022-12-29T11:06:58.067Z,44.80
2022-12-29T11:09:47.153Z,43.73
2022-12-29T11:12:24.887Z,44.23
2022-12-29T11:15:15.717Z,42.93
2022-12-29T11:17:50.495Z,44.57
2022-12-29T11:20:34.692Z,42.27
2022-12-29T11:23:04.385Z,44.87
2022-12-29T11:25:32.989Z,47.07
2022-12-29T11:28:05.259Z,46.47
2022-12-29T11:30:34.463Z,46.47
2022-12-29T11:33:06.348Z,43.30
2022-12-29T11:35:38.548Z,41.93
2022-12-29T11:38:22.059Z,42.30
2022-12-29T11:40:51.163Z,46.30
2022-12-29T11:43:25.653Z,46.90
2022-12-29T11:45:57.548Z,45.23
2022-12-29T11:48:31.439Z,45.50
2022-12-29T11:51:02.522Z,42.63
2022-12-29T11:53:39.364Z,47.43
2022-12-29T11:56:10.556Z,43.23
2022-12-29T11:58:40.631Z,43.47
2022-12-29T12:01:16.385Z,46.53
2022-12-29T12:03:51.720Z,44.60
2022-12-29T12:06:25.354Z,43.10
2022-12-29T12:08:57.803Z,41.17
2022-12-29T12:11:38.967Z,41.53
2022-12-29T12:14:16.172Z,46.07
2022-12-29T12:17:14.944Z,42.43
2022-12-29T12:19:52.475Z,43.37
2022-12-29T12:22:29.635Z,45.10
2022-12-29T12:25:03.776Z,40.97
2022-12-29T12:27:41.115Z,44.83
2022-12-29T12:30:16.529Z,45.33
2022-12-29T12:32:50.605Z,45.00
2022-12-29T12:35:28.763Z,46.23
2022-12-29T12:38:13.433Z,45.70
2022-12-29T12:41:02.148Z,45.60
2022-12-29T12:43:42.530Z,48.00
2022-12-29T12:46:38.807Z,44.80
2022-12-29T12:49:26.605Z,48.67
2022-12-29T12:52:09.739Z,44.33
2022-12-29T12:54:54.319Z,45.70
2022-12-29T12:57:34.174Z,46.27
2022-12-29T13:00:05.996Z,48.23
2022-12-29T13:02:48.688Z,47.00
2022-12-29T13:05:37.287Z,44.60
2022-12-29T13:08:29.297Z,42.37
2022-12-29T13:11:04.801Z,45.07
2022-12-29T13:13:51.161Z,46.37
2022-12-29T13:16:29.644Z,49.47
2022-12-29T13:19:05.146Z,50.47
2022-12-29T13:21:56.169Z,47.40
2022-12-29T13:24:36.513Z,44.80
2022-12-29T13:27:14.105Z,46.13
2022-12-29T13:29:49.393Z,43.97
2022-12-29T13:32:32.833Z,46.77
2022-12-29T13:35:13.975Z,45.00
2022-12-29T13:37:52.970Z,45.60
2022-12-29T13:40:27.043Z,46.37
2022-12-29T13:42:57.329Z,46.93
2022-12-29T13:45:30.837Z,47.17
2022-12-29T13:48:05.343Z,47.37
2022-12-29T13:50:41.245Z,45.20
2022-12-29T13:53:21.667Z,44.80
2022-12-29T13:55:56.645Z,40.67
2022-12-29T13:58:34.954Z,41.57
2022-12-29T14:01:11.954Z,47.10
2022-12-29T14:03:51.752Z,47.20
2022-12-29T14:06:28.353Z,45.23
2022-12-29T14:08:59.347Z,46.23
2022-12-29T14:11:34.835Z,50.17
2022-12-29T14:14:15.223Z,48.47
2022-12-29T14:16:44.768Z,47.60
2022-12-29T14:19:17.366Z,41.37
2022-12-29T14:21:59.922Z,44.30
2022-12-29T14:24:43.061Z,45.27
2022-12-29T14:27:53.735Z,47.10
2022-12-29T14:30:51.025Z,46.47
2022-12-29T14:33:20.264Z,48.23
2022-12-29T14:35:53.193Z,48.43
2022-12-29T14:38:33.986Z,47.40
2022-12-29T14:41:28.144Z,44.77
2022-12-29T14:44:04.937Z,47.03
2022-12-29T14:46:57.553Z,46.97
2022-12-29T14:49:33.161Z,47.47
2022-12-29T14:52:19.740Z,47.80
2022-12-29T14:54:58.702Z,45.77
2022-12-29T14:57:42.513Z,42.50
2022-12-29T15:00:21.859Z,43.77
2022-12-29T15:03:03.467Z,45.87
2022-12-29T15:05:39.646Z,45.47
2022-12-29T15:08:09.351Z,46.57
2022-12-29T15:10:42.885Z,46.47
2022-12-29T15:13:18.445Z,51.60
2022-12-29T15:15:48.720Z,53.70
2022-12-29T15:18:25.185Z,53.83
2022-12-29T15:20:57.456Z,56.87
2022-12-29T15:23:29.532Z,51.53
2022-12-29T15:25:59.897Z,44.60
2022-12-29T15:28:30.234Z,45.67
2022-12-29T15:31:06.228Z,50.23
2022-12-29T15:33:41.881Z,47.37
2022-12-29T15:36:16.198Z,47.70
2022-12-29T15:38:44.732Z,47.77
2022-12-29T15:41:26.565Z,46.67
2022-12-29T15:44:02.626Z,42.30
2022-12-29T15:46:34.253Z,45.37
2022-12-29T15:49:10.195Z,44.87
2022-12-29T15:51:40.710Z,48.97
2022-12-29T15:54:20.437Z,48.80
2022-12-29T15:56:51.033Z,48.07
2022-12-29T15:59:28.812Z,48.77
2022-12-29T16:01:59.737Z,47.10
2022-12-29T16:04:31.216Z,48.80
2022-12-29T16:07:01.534Z,49.63
2022-12-29T16:09:34.985Z,45.37
2022-12-29T16:12:06.947Z,45.67
2022-12-29T16:14:42.179Z,45.20
2022-12-29T16:17:20.280Z,43.80
2022-12-29T16:19:53.469Z,42.50
2022-12-29T16:22:28.599Z,41.70
2022-12-29T16:25:04.750Z,40.90
2022-12-29T16:27:40.721Z,39.93
2022-12-29T16:30:24.289Z,42.20
2022-12-29T16:33:01.112Z,41.80
2022-12-29T16:35:31.143Z,43.07
2022-12-29T16:38:19.103Z,44.57
2022-12-29T16:40:54.960Z,44.47
2022-12-29T16:43:25.461Z,45.20
2022-12-29T16:46:18.905Z,46.37
2022-12-29T16:48:54.760Z,46.13
2022-12-29T16:51:31.751Z,48.47
2022-12-29T16:54:04.540Z,51.00
2022-12-29T16:56:36.093Z,47.17
2022-12-29T16:59:07.053Z,47.20
2022-12-29T17:01:38.884Z,43.90
2022-12-29T17:04:11.592Z,40.60
2022-12-29T17:06:40.815Z,41.67
2022-12-29T17:09:21.679Z,46.20
2022-12-29T17:12:05.018Z,45.50
2022-12-29T17:14:43.981Z,51.90
2022-12-29T17:17:17.115Z,45.90
2022-12-29T17:19:51.095Z,47.13
2022-12-29T17:22:24.065Z,46.47
2022-12-29T17:24:52.655Z,45.50
2022-12-29T17:27:26.333Z,42.90
2022-12-29T17:29:58.164Z,45.60
2022-12-29T17:32:27.295Z,48.43
2022-12-29T17:34:59.270Z,45.50
2022-12-29T17:37:33.652Z,46.40
2022-12-29T17:40:04.561Z,45.40
2022-12-29T17:42:34.840Z,45.75
2022-12-29T17:45:03.858Z,46.58
2022-12-29T17:47:34.956Z,47.97
2022-12-29T17:50:11.575Z,45.80
2022-12-29T17:52:40.090Z,46.87
2022-12-29T17:55:16.022Z,48.28
2022-12-29T17:57:44.660Z,44.87
2022-12-29T18:00:17.757Z,45.97
2022-12-29T18:02:46.584Z,49.40
2022-12-29T18:05:21.037Z,49.88
2022-12-29T18:07:50.268Z,47.67
2022-12-29T18:10:18.799Z,49.45
2022-12-29T18:12:51.436Z,48.42
2022-12-29T18:15:22.073Z,44.23
2022-12-29T18:17:51.362Z,47.17
2022-12-29T18:20:21.228Z,46.15
2022-12-29T18:22:49.753Z,46.80
2022-12-29T18:25:24.492Z,47.00
2022-12-29T18:27:52.973Z,49.20
2022-12-29T18:30:21.591Z,44.90
2022-12-29T18:32:50.188Z,46.00
2022-12-29T18:35:34.693Z,44.33
2022-12-29T18:38:03.186Z,42.10
2022-12-29T18:40:31.610Z,43.40
2022-12-29T18:43:01.633Z,43.97
2022-12-29T18:45:32.716Z,42.30
2022-12-29T18:48:04.169Z,44.73
2022-12-29T18:50:34.041Z,44.00
2022-12-29T18:53:04.189Z,43.13
2022-12-29T18:55:33.375Z,44.93
2022-12-29T18:58:02.599Z,41.80
2022-12-29T19:00:31.056Z,42.80
2022-12-29T19:02:59.761Z,44.20
2022-12-29T19:05:31.325Z,44.20
2022-12-29T19:08:01.202Z,44.50
2022-12-29T19:10:32.587Z,42.87
2022-12-29T19:13:01.276Z,48.50
2022-12-29T19:15:31.336Z,46.23
2022-12-29T19:18:42.360Z,48.57
2022-12-29T19:20:57.673Z,71.33
2022-12-29T19:23:28.887Z,66.80
2022-12-29T19:25:57.424Z,48.93
2022-12-29T19:28:27.852Z,42.70
2022-12-29T19:30:59.826Z,43.63
2022-12-29T19:33:29.511Z,39.73
2022-12-29T19:36:01.284Z,42.97
2022-12-29T19:38:33.862Z,42.50
2022-12-29T19:41:02.346Z,43.17
2022-12-29T19:43:31.750Z,44.40
2022-12-29T19:46:08.738Z,46.50
2022-12-29T19:48:37.884Z,40.83
2022-12-29T19:51:08.394Z,42.47
2022-12-29T19:53:38.538Z,42.30
2022-12-29T19:56:09.517Z,44.37
2022-12-29T19:58:45.300Z,43.07
2022-12-29T20:01:18.693Z,44.10
2022-12-29T20:03:47.423Z,45.40
2022-12-29T20:06:19.324Z,45.10
2022-12-29T20:08:49.270Z,45.17
2022-12-29T20:11:19.272Z,47.40
2022-12-29T20:13:48.720Z,44.53
2022-12-29T20:16:20.251Z,45.57
2022-12-29T20:18:49.743Z,45.83
2022-12-29T20:21:20.148Z,46.73
2022-12-29T20:23:50.506Z,47.23
2022-12-29T20:26:24.248Z,44.73
2022-12-29T20:28:53.312Z,45.97
2022-12-29T20:31:25.122Z,46.80
2022-12-29T20:33:53.859Z,43.83
2022-12-29T20:36:25.681Z,44.80
2022-12-29T20:38:57.244Z,44.70
2022-12-29T20:41:26.210Z,46.23
2022-12-29T20:43:54.981Z,47.50
2022-12-29T20:46:29.842Z,48.20
2022-12-29T20:49:01.100Z,46.30
2022-12-29T20:51:59.354Z,48.30
2022-12-29T20:54:21.916Z,45.30
2022-12-29T20:56:50.631Z,46.37
2022-12-29T20:59:28.001Z,45.97
2022-12-29T21:02:00.656Z,47.87
2022-12-29T21:04:43.716Z,46.50
2022-12-29T21:07:20.160Z,46.07
2022-12-29T21:09:50.544Z,44.73
2022-12-29T21:12:19.096Z,45.10
2022-12-29T21:14:47.687Z,49.40
2022-12-29T21:17:16.440Z,48.17
2022-12-29T21:19:45.126Z,47.00
2022-12-29T21:22:13.841Z,50.50
2022-12-29T21:24:42.480Z,47.77
2022-12-29T21:27:13.856Z,47.70
2022-12-29T21:29:42.490Z,49.80
2022-12-29T21:32:11.300Z,50.73
2022-12-29T21:34:39.852Z,51.83
2022-12-29T21:37:08.305Z,48.93
2022-12-29T21:39:37.175Z,51.47
2022-12-29T21:42:06.017Z,49.27
2022-12-29T21:44:53.424Z,49.53
2022-12-29T21:47:21.866Z,47.40
2022-12-29T21:49:50.356Z,47.23
2022-12-29T21:52:18.934Z,47.40
2022-12-29T21:55:05.589Z,45.17
2022-12-29T21:57:51.258Z,49.27
2022-12-29T22:00:38.358Z,51.40
2022-12-29T22:03:24.199Z,49.40
2022-12-29T22:06:10.660Z,52.73
2022-12-29T22:08:57.152Z,53.97
2022-12-29T22:11:45.927Z,52.67
2022-12-29T22:14:14.527Z,52.50
2022-12-29T22:16:44.388Z,53.70
2022-12-29T22:19:12.838Z,53.90
2022-12-29T22:21:41.314Z,54.60
2022-12-29T22:24:10.349Z,58.10
2022-12-29T22:26:38.829Z,55.70
2022-12-29T22:29:07.302Z,52.00
2022-12-29T22:31:37.827Z,50.33
2022-12-29T22:34:07.695Z,48.47
2022-12-29T22:36:38.774Z,50.23
2022-12-29T22:39:07.814Z,48.23
2022-12-29T22:41:36.340Z,50.57
2022-12-29T22:44:05.060Z,52.40
2022-12-29T22:46:33.746Z,52.20
2022-12-29T22:49:02.258Z,47.70
2022-12-29T22:51:32.070Z,50.57
2022-12-29T22:54:01.665Z,51.10
2022-12-29T22:56:31.364Z,50.80
2022-12-29T22:58:59.859Z,51.90
2022-12-29T23:01:28.486Z,47.67
2022-12-29T23:04:10.950Z,45.60
2022-12-29T23:06:47.054Z,48.07
2022-12-29T23:09:18.728Z,47.33
2022-12-29T23:11:47.849Z,45.27
2022-12-29T23:14:16.927Z,48.97
2022-12-29T23:16:45.671Z,47.37
2022-12-29T23:19:15.067Z,48.37
2022-12-29T23:21:43.679Z,48.77
2022-12-29T23:24:14.739Z,52.10
2022-12-29T23:26:46.694Z,54.30
2022-12-29T23:29:16.855Z,51.47
2022-12-29T23:31:45.783Z,50.70
2022-12-29T23:34:16.501Z,47.60
2022-12-29T23:36:45.260Z,50.40
2022-12-29T23:39:21.218Z,51.43
2022-12-29T23:41:52.838Z,50.13
2022-12-29T23:44:21.930Z,46.17
2022-12-29T23:46:50.710Z,46.60
2022-12-29T23:49:21.881Z,44.20
2022-12-29T23:51:50.318Z,45.77
2022-12-29T23:54:20.336Z,62.63
2022-12-29T23:56:48.854Z,65.57
2022-12-29T23:59:17.287Z,59.10
